Time;durP1;ratioP1;P1;durP2;ratioP2;P2;SDS_P1;SDS_P2;PMS_P1;PMS_P2;Temp;Humidity;BMP_temperature;BMP_pressure;BME280_temperature;BME280_humidity;BME280_pressure;Samples;Min_cycle;Max_cycle;Signal;HPM_P1;HPM_P2
2021/01/04 00:00:32;;;;;;;16.10;6.50;;;2.40;95.70;;;;;;5040078;28;20033;-67
2021/01/04 00:03:10;;;;;;;14.50;6.65;;;2.50;95.70;;;;;;5076263;28;20263;-67
2021/01/04 00:05:39;;;;;;;18.02;6.35;;;2.50;95.70;;;;;;5078552;28;20028;-67
2021/01/04 00:08:24;;;;;;;15.65;6.13;;;2.50;95.70;;;;;;5073093;28;20042;-67
2021/01/04 00:11:06;;;;;;;14.43;6.55;;;2.50;95.60;;;;;;5077432;28;20035;-67
2021/01/04 00:13:48;;;;;;;19.05;6.88;;;2.50;95.30;;;;;;5075131;28;20032;-67
2021/01/04 00:16:31;;;;;;;15.02;5.82;;;2.50;95.50;;;;;;5072402;28;20036;-67
2021/01/04 00:19:28;;;;;;;13.52;5.72;;;2.50;95.30;;;;;;5078885;28;20036;-67
2021/01/04 00:22:03;;;;;;;13.15;5.47;;;2.60;95.30;;;;;;5065639;28;20416;-67
2021/01/04 00:24:49;;;;;;;16.02;5.55;;;2.50;95.20;;;;;;5078797;28;20055;-67
2021/01/04 00:28:09;;;;;;;16.10;5.85;;;2.50;94.80;;;;;;5066595;28;20076;-66
2021/01/04 00:30:49;;;;;;;19.80;5.70;;;2.60;95.00;;;;;;4985691;28;20038;-67
2021/01/04 00:33:36;;;;;;;11.52;5.85;;;2.50;95.20;;;;;;5054259;28;20792;-67
2021/01/04 00:36:25;;;;;;;14.43;6.05;;;2.50;95.20;;;;;;5065409;28;20028;-66
2021/01/04 00:39:30;;;;;;;18.23;6.55;;;2.50;95.40;;;;;;5065377;28;20519;-68
2021/01/04 00:41:59;;;;;;;11.63;5.82;;;2.60;95.40;;;;;;5048290;28;20412;-67
2021/01/04 00:44:40;;;;;;;15.85;6.28;;;2.50;95.40;;;;;;5065823;28;20075;-67
2021/01/04 00:47:29;;;;;;;17.02;6.43;;;2.60;95.40;;;;;;5065362;28;20028;-66
2021/01/04 00:50:08;;;;;;;11.95;5.93;;;2.60;95.40;;;;;;5019043;28;20136;-67
2021/01/04 00:52:46;;;;;;;11.70;5.82;;;2.60;95.50;;;;;;5065938;28;20020;-67
2021/01/04 00:55:36;;;;;;;14.32;5.43;;;2.60;95.50;;;;;;5065869;28;20089;-68
2021/01/04 00:58:01;;;;;;;11.82;5.40;;;2.60;95.20;;;;;;5066397;28;20044;-67
2021/01/04 01:00:34;;;;;;;10.23;4.85;;;2.60;95.00;;;;;;5047835;28;20036;-67
2021/01/04 01:03:25;;;;;;;14.05;5.28;;;2.60;94.50;;;;;;5066640;28;20028;-67
2021/01/04 01:06:06;;;;;;;16.00;6.00;;;2.70;94.50;;;;;;5046860;28;20035;-66
2021/01/04 01:08:36;;;;;;;14.60;5.13;;;2.70;94.60;;;;;;5070519;28;20032;-67
2021/01/04 01:11:07;;;;;;;13.43;5.70;;;2.70;94.70;;;;;;5062395;28;20036;-67
2021/01/04 01:13:42;;;;;;;12.25;4.78;;;2.70;94.60;;;;;;5066408;28;20032;-65
2021/01/04 01:16:17;;;;;;;11.73;5.28;;;2.70;94.20;;;;;;5065557;28;20036;-66
2021/01/04 01:19:06;;;;;;;12.68;5.43;;;2.60;94.10;;;;;;5047341;28;20036;-65
2021/01/04 01:21:34;;;;;;;12.15;5.20;;;2.70;94.00;;;;;;5064426;28;20032;-66
2021/01/04 01:24:01;;;;;;;14.52;5.10;;;2.70;94.30;;;;;;5065426;28;20103;-66
2021/01/04 01:26:42;;;;;;;13.20;4.82;;;2.70;94.30;;;;;;5058087;28;20021;-66
2021/01/04 01:29:42;;;;;;;12.07;5.32;;;2.70;93.60;;;;;;5057510;28;20032;-66
2021/01/04 01:32:30;;;;;;;11.65;4.78;;;2.70;93.60;;;;;;5079295;28;20061;-68
2021/01/04 01:35:02;;;;;;;16.10;5.60;;;2.70;93.10;;;;;;5085085;28;20024;-67
2021/01/04 01:37:48;;;;;;;10.70;4.88;;;2.80;93.00;;;;;;5084641;28;20024;-67
2021/01/04 01:40:42;;;;;;;9.60;4.20;;;2.80;92.80;;;;;;5068055;28;20110;-68
2021/01/04 01:43:47;;;;;;;12.23;5.00;;;2.80;92.80;;;;;;5068157;28;20153;-67
2021/01/04 01:46:32;;;;;;;12.38;4.50;;;2.80;92.80;;;;;;5074709;28;20365;-68
2021/01/04 01:49:39;;;;;;;9.13;4.50;;;2.80;92.70;;;;;;5081187;28;20322;-67
2021/01/04 01:52:10;;;;;;;8.57;4.78;;;2.80;92.80;;;;;;5045716;28;20498;-66
2021/01/04 01:55:17;;;;;;;10.23;4.85;;;2.90;92.60;;;;;;5067158;28;20023;-67
2021/01/04 01:58:08;;;;;;;12.40;4.53;;;2.80;92.40;;;;;;5046691;28;20033;-67
2021/01/04 02:00:42;;;;;;;12.98;4.55;;;2.80;92.60;;;;;;5082285;28;20457;-67
2021/01/04 02:03:27;;;;;;;11.98;4.05;;;2.90;92.20;;;;;;5085258;28;20079;-68
2021/01/04 02:06:22;;;;;;;9.38;4.45;;;2.90;92.30;;;;;;5085460;28;20028;-67
2021/01/04 02:09:06;;;;;;;12.82;4.57;;;3.00;91.80;;;;;;5083765;28;20032;-67
2021/01/04 02:11:38;;;;;;;9.95;4.20;;;2.90;92.00;;;;;;5075112;28;20020;-68
2021/01/04 02:14:08;;;;;;;9.00;4.10;;;3.00;92.20;;;;;;5049412;28;20068;-67
2021/01/04 02:16:42;;;;;;;9.32;4.10;;;3.00;91.70;;;;;;5069305;28;20119;-67
2021/01/04 02:19:45;;;;;;;9.57;3.85;;;2.90;92.40;;;;;;5070628;28;20070;-68
2021/01/04 02:22:43;;;;;;;9.18;4.22;;;3.00;92.00;;;;;;5079042;28;20017;-67
2021/01/04 02:25:09;;;;;;;11.05;4.10;;;3.00;91.80;;;;;;5086595;28;20016;-67
2021/01/04 02:27:39;;;;;;;8.23;3.95;;;3.00;91.60;;;;;;5074733;28;20042;-67
2021/01/04 02:30:06;;;;;;;8.25;3.65;;;3.00;91.20;;;;;;5085640;28;20024;-68
2021/01/04 02:32:31;;;;;;;9.80;3.70;;;3.00;91.20;;;;;;5073068;28;20048;-68
2021/01/04 02:34:58;;;;;;;9.18;4.07;;;3.00;91.40;;;;;;5076736;28;20066;-67
2021/01/04 02:37:25;;;;;;;7.85;3.20;;;3.00;91.40;;;;;;5076759;28;20084;-67
2021/01/04 02:39:57;;;;;;;9.68;3.30;;;3.10;90.20;;;;;;5085300;28;20028;-68
2021/01/04 02:42:39;;;;;;;9.93;3.17;;;3.00;90.90;;;;;;5083132;28;20438;-67
2021/01/04 02:45:17;;;;;;;7.57;3.55;;;3.00;91.10;;;;;;5085614;28;20032;-67
2021/01/04 02:48:06;;;;;;;7.50;3.40;;;3.00;90.70;;;;;;5084617;28;20428;-67
2021/01/04 02:51:05;;;;;;;9.38;3.38;;;3.10;90.30;;;;;;5083486;28;20167;-67
2021/01/04 02:53:43;;;;;;;7.68;3.20;;;3.10;90.30;;;;;;5072947;28;20100;-68
2021/01/04 02:56:18;;;;;;;8.23;2.55;;;3.00;90.20;;;;;;5065455;28;20392;-68
2021/01/04 02:59:14;;;;;;;8.93;3.50;;;3.00;90.40;;;;;;5081944;28;20031;-68
2021/01/04 03:01:46;;;;;;;8.60;3.10;;;3.00;90.40;;;;;;5084248;28;20017;-68
2021/01/04 03:04:15;;;;;;;7.65;2.92;;;3.00;89.90;;;;;;5083302;28;20020;-67
2021/01/04 03:07:00;;;;;;;7.18;2.72;;;3.00;89.80;;;;;;5072726;28;20024;-68
2021/01/04 03:09:28;;;;;;;8.05;3.30;;;3.10;89.70;;;;;;5062496;28;20044;-67
2021/01/04 03:11:58;;;;;;;7.03;2.38;;;3.00;90.30;;;;;;5083584;28;20278;-67
2021/01/04 03:14:46;;;;;;;7.88;2.70;;;3.00;89.90;;;;;;5074347;28;20487;-68
2021/01/04 03:17:36;;;;;;;8.15;2.72;;;3.00;89.70;;;;;;5083867;28;20392;-68
2021/01/04 03:20:06;;;;;;;6.75;2.75;;;3.00;90.00;;;;;;5083623;28;20051;-68
2021/01/04 03:22:32;;;;;;;8.32;2.83;;;3.00;90.10;;;;;;5080493;28;20549;-67
2021/01/04 03:24:57;;;;;;;6.47;2.60;;;3.00;89.90;;;;;;5087405;28;20057;-68
2021/01/04 03:27:29;;;;;;;5.50;2.28;;;3.00;90.00;;;;;;5059031;28;20032;-67
2021/01/04 03:29:55;;;;;;;7.47;2.25;;;3.00;90.00;;;;;;5077394;28;20036;-68
2021/01/04 03:32:21;;;;;;;6.50;2.38;;;3.00;89.40;;;;;;5086528;28;20050;-68
2021/01/04 03:34:47;;;;;;;7.47;2.10;;;3.00;89.10;;;;;;5088429;28;20138;-67
2021/01/04 03:37:13;;;;;;;5.32;2.10;;;3.00;89.20;;;;;;5074227;28;20028;-67
2021/01/04 03:39:41;;;;;;;6.88;2.28;;;3.00;88.90;;;;;;5069655;28;20482;-68
2021/01/04 03:42:06;;;;;;;6.10;2.05;;;3.00;89.50;;;;;;5085974;28;20020;-67
2021/01/04 03:44:32;;;;;;;6.18;2.22;;;3.00;89.20;;;;;;5088649;28;20078;-67
2021/01/04 03:46:58;;;;;;;5.05;2.22;;;3.00;89.50;;;;;;5068964;28;20027;-68
2021/01/04 03:49:24;;;;;;;5.85;1.88;;;3.00;89.30;;;;;;5087689;28;20039;-67
2021/01/04 03:51:58;;;;;;;8.32;2.13;;;3.00;89.10;;;;;;5083628;28;20032;-67
2021/01/04 03:54:24;;;;;;;6.30;1.85;;;3.00;89.20;;;;;;5082156;28;20054;-68
2021/01/04 03:56:50;;;;;;;7.35;1.90;;;3.00;89.10;;;;;;5082259;28;20129;-68
2021/01/04 03:59:16;;;;;;;3.75;1.77;;;3.00;89.30;;;;;;5087042;28;20016;-67
2021/01/04 04:02:08;;;;;;;4.07;1.88;;;3.00;89.00;;;;;;5088352;28;20383;-68
2021/01/04 04:04:33;;;;;;;6.13;2.00;;;3.00;89.30;;;;;;5075729;28;20372;-68
2021/01/04 04:06:59;;;;;;;3.70;1.65;;;3.00;88.90;;;;;;5087196;28;20024;-67
2021/01/04 04:09:25;;;;;;;8.10;1.85;;;3.10;89.30;;;;;;5068118;28;20427;-68
2021/01/04 04:11:51;;;;;;;4.75;2.05;;;3.00;89.30;;;;;;5086904;28;20028;-67
2021/01/04 04:14:18;;;;;;;4.82;1.65;;;3.00;89.50;;;;;;5086796;28;20048;-68
2021/01/04 04:16:44;;;;;;;5.72;1.88;;;3.00;89.90;;;;;;5087903;28;20038;-66
2021/01/04 04:19:11;;;;;;;6.47;1.80;;;3.00;90.10;;;;;;5080587;28;20020;-67
2021/01/04 04:21:37;;;;;;;5.57;1.83;;;3.10;89.40;;;;;;5083574;28;20182;-68
2021/01/04 04:24:02;;;;;;;6.13;1.90;;;3.00;89.80;;;;;;5087341;28;20024;-68
2021/01/04 04:26:29;;;;;;;7.53;1.40;;;3.00;90.00;;;;;;5069365;28;20469;-68
2021/01/04 04:28:55;;;;;;;4.05;1.42;;;3.00;89.40;;;;;;5086815;28;20032;-68
2021/01/04 04:31:21;;;;;;;4.95;1.38;;;3.10;89.90;;;;;;5088677;28;20031;-68
2021/01/04 04:33:48;;;;;;;6.53;1.30;;;3.00;90.10;;;;;;5085829;28;20111;-67
2021/01/04 04:36:24;;;;;;;8.80;1.88;;;3.00;89.60;;;;;;5056519;28;20028;-68
2021/01/04 04:38:51;;;;;;;4.13;1.63;;;3.00;89.60;;;;;;5079137;28;20050;-68
2021/01/04 04:41:35;;;;;;;9.30;1.60;;;3.00;89.70;;;;;;5086964;28;20107;-67
2021/01/04 04:44:13;;;;;;;2.80;1.42;;;3.00;89.50;;;;;;5079008;28;20036;-68
2021/01/04 04:47:21;;;;;;;3.75;1.45;;;3.00;89.90;;;;;;5087490;28;20408;-67
2021/01/04 04:49:55;;;;;;;3.90;1.50;;;3.10;89.00;;;;;;5074003;28;20514;-68
2021/01/04 04:52:39;;;;;;;5.30;1.50;;;3.10;89.60;;;;;;5105577;28;20084;-68
2021/01/04 04:55:18;;;;;;;3.38;1.42;;;3.00;89.60;;;;;;5084529;28;20020;-68
2021/01/04 04:58:03;;;;;;;5.13;1.55;;;3.00;89.50;;;;;;5083629;28;20031;-68
2021/01/04 05:00:57;;;;;;;3.20;1.13;;;3.10;88.50;;;;;;5078527;28;20123;-68
2021/01/04 05:03:35;;;;;;;6.68;1.38;;;3.10;88.40;;;;;;5080552;28;20025;-68
2021/01/04 05:06:22;;;;;;;3.90;1.70;;;3.10;88.70;;;;;;5071307;28;20293;-67
2021/01/04 05:08:56;;;;;;;2.78;1.05;;;3.10;88.80;;;;;;5082684;28;20054;-68
2021/01/04 05:11:30;;;;;;;5.55;1.38;;;3.10;88.80;;;;;;5081345;28;20120;-66
2021/01/04 05:13:57;;;;;;;5.07;1.20;;;3.10;88.80;;;;;;5085180;28;20511;-68
2021/01/04 05:16:57;;;;;;;5.03;1.25;;;3.10;88.70;;;;;;5086838;28;20047;-67
2021/01/04 05:19:50;;;;;;;3.40;1.20;;;3.10;88.70;;;;;;5080626;28;20498;-68
2021/01/04 05:22:20;;;;;;;6.13;1.35;;;3.10;89.10;;;;;;5067651;28;20046;-67
2021/01/04 05:25:25;;;;;;;3.53;1.35;;;3.10;88.60;;;;;;5082186;28;20052;-67
2021/01/04 05:28:08;;;;;;;4.88;1.05;;;3.10;88.90;;;;;;5086495;28;20131;-68
2021/01/04 05:31:06;;;;;;;2.92;1.10;;;3.10;89.30;;;;;;5085479;28;20437;-68
2021/01/04 05:33:53;;;;;;;3.85;1.25;;;3.10;89.30;;;;;;5086464;28;20032;-68
2021/01/04 05:36:49;;;;;;;5.97;1.17;;;3.10;89.40;;;;;;5084976;28;20028;-67
2021/01/04 05:39:27;;;;;;;3.60;1.27;;;3.10;89.70;;;;;;5073489;28;20029;-68
2021/01/04 05:41:58;;;;;;;4.53;1.23;;;3.10;89.70;;;;;;5084930;28;20032;-68
2021/01/04 05:44:49;;;;;;;3.25;1.10;;;3.10;90.00;;;;;;5085177;28;20040;-67
2021/01/04 05:47:21;;;;;;;2.10;0.90;;;3.10;89.90;;;;;;5085458;28;20032;-67
2021/01/04 05:50:00;;;;;;;2.25;1.00;;;3.10;90.10;;;;;;5063358;28;20353;-68
2021/01/04 05:52:25;;;;;;;4.80;1.30;;;3.10;90.40;;;;;;5065946;28;20032;-68
2021/01/04 05:54:52;;;;;;;2.95;0.90;;;3.10;90.30;;;;;;5082519;28;21098;-67
2021/01/04 05:57:18;;;;;;;3.80;1.15;;;3.10;90.50;;;;;;5082921;28;20047;-68
2021/01/04 05:59:52;;;;;;;2.95;1.00;;;3.10;90.40;;;;;;5069603;28;20024;-68
2021/01/04 06:02:25;;;;;;;2.67;0.95;;;3.10;90.50;;;;;;5083422;28;20021;-68
2021/01/04 06:04:51;;;;;;;1.90;0.77;;;3.10;90.00;;;;;;5085390;28;20451;-68
2021/01/04 06:07:18;;;;;;;2.25;0.77;;;3.10;90.10;;;;;;5086041;28;20032;-68
2021/01/04 06:09:56;;;;;;;4.93;1.25;;;3.10;90.00;;;;;;5078177;28;20534;-68
2021/01/04 06:12:54;;;;;;;2.13;0.85;;;3.10;89.70;;;;;;5086073;28;20110;-70
2021/01/04 06:15:27;;;;;;;4.03;1.00;;;3.10;90.00;;;;;;5039417;28;20176;-69
2021/01/04 06:18:11;;;;;;;1.48;0.52;;;3.10;90.00;;;;;;5081041;28;20247;-68
2021/01/04 06:21:07;;;;;;;1.85;0.90;;;3.10;89.80;;;;;;5083274;28;20020;-68
2021/01/04 06:23:35;;;;;;;3.30;1.02;;;3.20;89.90;;;;;;5061892;28;20557;-68
2021/01/04 06:26:10;;;;;;;4.53;1.05;;;3.20;90.20;;;;;;5063693;28;20486;-68
2021/01/04 06:28:58;;;;;;;3.28;1.15;;;3.10;90.00;;;;;;5063894;28;20145;-67
2021/01/04 06:31:30;;;;;;;3.75;0.88;;;3.10;90.10;;;;;;5063493;28;20036;-68
2021/01/04 06:34:12;;;;;;;5.55;0.98;;;3.10;89.80;;;;;;5064977;28;20020;-68
2021/01/04 06:36:39;;;;;;;1.80;0.70;;;3.10;90.00;;;;;;5071368;28;20036;-68
2021/01/04 06:39:12;;;;;;;5.72;0.95;;;3.10;89.90;;;;;;5084291;28;20020;-68
2021/01/04 06:41:38;;;;;;;2.70;0.90;;;3.10;89.90;;;;;;5085026;28;20020;-68
2021/01/04 06:44:28;;;;;;;2.45;0.80;;;3.10;89.70;;;;;;5083393;28;20078;-68
2021/01/04 06:47:11;;;;;;;3.67;1.10;;;3.10;89.10;;;;;;5062155;28;20395;-68
2021/01/04 06:50:02;;;;;;;2.95;1.27;;;3.20;89.00;;;;;;5065985;28;20123;-67
2021/01/04 06:52:50;;;;;;;1.67;0.88;;;3.10;89.60;;;;;;5081882;28;20131;-68
2021/01/04 06:55:27;;;;;;;2.28;1.02;;;3.20;89.60;;;;;;5082376;28;20449;-67
2021/01/04 06:58:48;;;;;;;2.30;1.00;;;3.10;89.90;;;;;;5081947;28;20058;-68
2021/01/04 07:01:53;;;;;;;2.08;1.20;;;3.20;89.60;;;;;;5023317;28;20434;-68
2021/01/04 07:04:42;;;;;;;3.78;0.80;;;3.10;90.20;;;;;;5039769;28;20054;-68
2021/01/04 07:07:39;;;;;;;4.40;0.77;;;3.10;90.30;;;;;;5086543;28;20125;-68
2021/01/04 07:10:23;;;;;;;4.50;1.13;;;3.10;90.50;;;;;;5065313;28;20060;-68
2021/01/04 07:13:04;;;;;;;3.00;0.98;;;3.10;90.70;;;;;;5087438;28;20365;-68
2021/01/04 07:15:31;;;;;;;5.20;1.48;;;3.00;90.70;;;;;;5086045;28;20380;-68
2021/01/04 07:18:00;;;;;;;2.45;1.00;;;3.10;90.80;;;;;;5086909;28;21338;-68
2021/01/04 07:20:45;;;;;;;5.10;1.13;;;3.10;90.80;;;;;;5088881;28;20069;-68
2021/01/04 07:23:14;;;;;;;3.65;1.00;;;3.10;90.70;;;;;;5083089;28;20055;-67
2021/01/04 07:26:01;;;;;;;5.07;1.20;;;3.10;90.80;;;;;;5079181;28;20028;-67
2021/01/04 07:28:54;;;;;;;3.67;1.25;;;3.10;91.00;;;;;;5086195;28;20034;-68
2021/01/04 07:31:32;;;;;;;2.55;1.00;;;3.00;90.80;;;;;;5066438;28;20035;-68
2021/01/04 07:34:21;;;;;;;2.85;1.23;;;3.10;91.10;;;;;;5066443;28;20020;-68
2021/01/04 07:36:51;;;;;;;5.60;1.40;;;3.10;91.00;;;;;;5067087;28;20062;-68
2021/01/04 07:39:28;;;;;;;5.35;1.10;;;3.10;90.90;;;;;;5066925;28;20467;-67
2021/01/04 07:42:39;;;;;;;3.92;1.05;;;3.10;91.00;;;;;;5068567;28;20040;-68
2021/01/04 07:45:07;;;;;;;4.05;0.90;;;3.10;91.10;;;;;;5038031;28;20040;-68
2021/01/04 07:47:58;;;;;;;5.13;0.90;;;3.10;91.40;;;;;;5044971;28;20282;-66
2021/01/04 07:50:35;;;;;;;7.68;1.17;;;3.00;91.50;;;;;;5030061;28;20044;-65
2021/01/04 07:53:20;;;;;;;4.97;1.10;;;3.00;91.30;;;;;;5067581;28;20513;-65
2021/01/04 07:56:19;;;;;;;3.05;0.93;;;3.10;90.90;;;;;;5066070;28;20078;-66
2021/01/04 07:58:54;;;;;;;2.92;0.93;;;3.00;91.20;;;;;;5067472;28;20032;-68
2021/01/04 08:01:56;;;;;;;3.67;1.10;;;3.00;91.10;;;;;;5066523;28;20024;-68
2021/01/04 08:04:55;;;;;;;2.30;1.30;;;3.00;91.40;;;;;;5048924;28;20078;-68
2021/01/04 08:07:57;;;;;;;4.38;1.35;;;3.00;91.30;;;;;;5067167;28;20126;-68
2021/01/04 08:10:51;;;;;;;3.58;0.90;;;3.00;91.50;;;;;;5070280;28;20036;-68
2021/01/04 08:13:26;;;;;;;6.10;1.10;;;3.00;91.70;;;;;;5066439;28;20043;-66
2021/01/04 08:15:59;;;;;;;3.00;1.50;;;3.00;91.80;;;;;;5066321;28;20443;-66
2021/01/04 08:18:25;;;;;;;2.00;1.27;;;3.10;91.60;;;;;;5067968;28;20039;-66
2021/01/04 08:21:16;;;;;;;7.20;1.40;;;3.10;91.20;;;;;;5065114;28;20875;-66
2021/01/04 08:23:51;;;;;;;5.45;1.52;;;3.10;91.40;;;;;;5067039;28;20280;-65
2021/01/04 08:26:44;;;;;;;2.58;1.30;;;3.10;91.40;;;;;;5066149;28;20760;-66
2021/01/04 08:29:32;;;;;;;5.25;1.73;;;3.10;91.10;;;;;;5066335;28;20151;-65
2021/01/04 08:32:09;;;;;;;3.08;1.45;;;3.10;91.30;;;;;;5065921;28;22025;-66
2021/01/04 08:34:43;;;;;;;5.85;1.77;;;3.10;91.60;;;;;;5063418;28;20126;-66
2021/01/04 08:37:11;;;;;;;3.75;1.52;;;3.10;91.60;;;;;;5067301;28;20096;-66
2021/01/04 08:39:48;;;;;;;4.50;1.77;;;3.10;91.50;;;;;;5065215;28;20388;-65
2021/01/04 08:42:22;;;;;;;3.10;1.70;;;3.10;91.40;;;;;;5064696;28;20421;-66
2021/01/04 08:44:57;;;;;;;6.20;1.52;;;3.10;91.50;;;;;;5048310;28;20028;-66
2021/01/04 08:47:30;;;;;;;4.03;1.45;;;3.10;91.60;;;;;;5065313;28;20423;-65
2021/01/04 08:50:13;;;;;;;4.95;1.83;;;3.00;91.70;;;;;;5065462;28;20031;-66
2021/01/04 08:52:46;;;;;;;3.65;1.27;;;3.00;91.70;;;;;;5065811;28;20159;-66
2021/01/04 08:55:30;;;;;;;4.70;1.70;;;3.00;91.90;;;;;;5066067;28;20046;-65
2021/01/04 08:57:59;;;;;;;3.22;1.58;;;3.00;91.80;;;;;;5058836;28;20032;-66
2021/01/04 09:00:29;;;;;;;3.78;1.80;;;2.90;92.10;;;;;;5063806;28;20365;-66
2021/01/04 09:02:56;;;;;;;3.08;1.40;;;2.90;92.00;;;;;;5065138;28;20103;-66
2021/01/04 09:05:35;;;;;;;1.90;1.45;;;2.90;91.60;;;;;;5064371;28;20024;-66
2021/01/04 09:08:03;;;;;;;4.95;1.50;;;2.80;92.00;;;;;;5064013;28;20192;-66
2021/01/04 09:10:45;;;;;;;3.65;1.42;;;2.80;92.10;;;;;;5064300;28;20039;-66
2021/01/04 09:13:34;;;;;;;2.60;1.80;;;2.80;92.30;;;;;;5064027;28;20110;-65
2021/01/04 09:16:31;;;;;;;3.92;1.98;;;2.80;92.20;;;;;;5064174;28;21152;-66
2021/01/04 09:19:18;;;;;;;2.20;1.33;;;2.80;92.40;;;;;;5047332;28;20036;-66
2021/01/04 09:21:45;;;;;;;3.33;2.00;;;2.80;91.90;;;;;;5063310;28;20368;-66
2021/01/04 09:24:16;;;;;;;5.13;2.10;;;2.70;92.30;;;;;;5057185;28;20040;-65
2021/01/04 09:26:43;;;;;;;5.32;1.88;;;2.80;92.30;;;;;;5053553;28;20110;-65
2021/01/04 09:29:12;;;;;;;4.13;2.20;;;2.70;92.40;;;;;;5058467;28;20032;-65
2021/01/04 09:31:58;;;;;;;3.65;2.00;;;2.80;92.40;;;;;;5056861;28;20060;-66
2021/01/04 09:34:27;;;;;;;4.45;2.25;;;2.70;92.40;;;;;;5057426;28;20047;-65
2021/01/04 09:37:01;;;;;;;3.33;1.80;;;2.70;92.70;;;;;;5054868;28;20036;-66
2021/01/04 09:39:30;;;;;;;3.42;1.83;;;2.70;92.70;;;;;;5056745;28;20211;-66
2021/01/04 09:41:58;;;;;;;3.40;1.70;;;2.70;92.70;;;;;;5056981;28;20035;-65
2021/01/04 09:44:24;;;;;;;3.55;1.75;;;2.60;92.60;;;;;;5056862;28;20046;-66
2021/01/04 09:46:54;;;;;;;3.67;1.67;;;2.70;92.80;;;;;;5053107;28;20036;-66
2021/01/04 09:49:37;;;;;;;3.63;1.73;;;2.60;92.80;;;;;;5056884;28;20561;-65
2021/01/04 09:52:08;;;;;;;3.05;1.75;;;2.60;92.90;;;;;;5056746;28;20032;-65
2021/01/04 09:54:51;;;;;;;3.03;1.65;;;2.60;93.10;;;;;;5055501;28;20028;-65
2021/01/04 09:57:21;;;;;;;3.22;1.90;;;2.70;93.30;;;;;;5053517;28;20110;-66
2021/01/04 09:59:47;;;;;;;6.72;1.73;;;2.60;93.20;;;;;;5055488;28;20038;-65
2021/01/04 10:02:25;;;;;;;2.80;1.60;;;2.60;93.20;;;;;;5055447;28;20280;-66
2021/01/04 10:04:51;;;;;;;3.80;1.88;;;2.60;93.50;;;;;;5055277;28;20034;-66
2021/01/04 10:07:26;;;;;;;5.15;2.00;;;2.60;93.60;;;;;;5053270;28;20153;-66
2021/01/04 10:09:53;;;;;;;2.65;1.77;;;2.70;93.50;;;;;;5041198;28;20044;-65
2021/01/04 10:12:23;;;;;;;5.70;2.00;;;2.60;93.30;;;;;;5055537;28;20032;-66
2021/01/04 10:14:57;;;;;;;2.95;1.85;;;2.60;93.30;;;;;;5056934;28;20039;-66
2021/01/04 10:17:39;;;;;;;3.88;1.90;;;2.70;93.30;;;;;;5034398;28;20169;-65
2021/01/04 10:20:25;;;;;;;4.03;2.20;;;2.70;93.30;;;;;;5056423;28;20647;-66
2021/01/04 10:22:56;;;;;;;3.60;2.35;;;2.70;93.40;;;;;;5056682;28;20401;-67
2021/01/04 10:25:39;;;;;;;3.72;2.22;;;2.70;93.40;;;;;;5056717;28;20357;-65
2021/01/04 10:28:06;;;;;;;3.25;1.95;;;2.80;93.30;;;;;;5052619;28;20368;-67
2021/01/04 10:30:32;;;;;;;4.47;2.30;;;2.70;93.30;;;;;;5055504;28;20027;-66
2021/01/04 10:33:32;;;;;;;5.03;2.40;;;2.80;93.20;;;;;;5055884;28;20424;-66
2021/01/04 10:36:06;;;;;;;4.35;2.42;;;2.80;93.10;;;;;;5056116;28;20039;-66
2021/01/04 10:38:34;;;;;;;4.80;2.25;;;2.90;93.10;;;;;;5062145;28;20032;-67
2021/01/04 10:41:06;;;;;;;4.32;2.40;;;2.90;93.10;;;;;;5063104;28;20279;-66
2021/01/04 10:43:32;;;;;;;3.05;1.83;;;2.80;92.80;;;;;;5045178;28;20040;-66
2021/01/04 10:45:57;;;;;;;4.93;2.15;;;2.80;92.90;;;;;;5062673;28;20024;-66
2021/01/04 10:48:26;;;;;;;4.15;2.03;;;2.90;92.80;;;;;;5061592;28;20157;-67
2021/01/04 10:50:54;;;;;;;3.17;2.40;;;2.90;92.80;;;;;;5061130;28;20019;-67
2021/01/04 10:53:41;;;;;;;3.85;2.30;;;3.00;93.00;;;;;;5062775;28;20020;-66
2021/01/04 10:56:16;;;;;;;4.60;2.08;;;2.90;92.80;;;;;;5063413;28;20087;-66
2021/01/04 10:59:19;;;;;;;3.53;1.92;;;2.90;92.70;;;;;;5062753;28;20039;-66
2021/01/04 11:01:48;;;;;;;3.38;1.83;;;2.90;92.60;;;;;;5062464;28;20544;-66
2021/01/04 11:04:19;;;;;;;4.05;1.98;;;2.90;92.50;;;;;;5063670;28;20028;-66
2021/01/04 11:07:06;;;;;;;4.03;2.20;;;2.80;92.60;;;;;;5062993;28;20037;-66
2021/01/04 11:09:36;;;;;;;4.40;2.25;;;2.90;92.80;;;;;;5066895;28;20477;-66
2021/01/04 11:12:09;;;;;;;3.97;2.10;;;2.90;92.70;;;;;;5044103;28;20437;-67
2021/01/04 11:14:37;;;;;;;3.13;2.00;;;2.90;92.70;;;;;;5062616;28;20591;-66
2021/01/04 11:17:17;;;;;;;2.90;2.05;;;2.90;92.70;;;;;;5062353;28;20052;-66
2021/01/04 11:19:42;;;;;;;4.85;2.22;;;2.90;92.70;;;;;;5062517;28;20027;-66
2021/01/04 11:22:15;;;;;;;2.53;1.88;;;2.90;92.70;;;;;;5064277;28;20028;-66
2021/01/04 11:24:41;;;;;;;4.97;2.42;;;3.00;92.70;;;;;;5061755;28;20066;-66
2021/01/04 11:27:07;;;;;;;3.50;2.35;;;3.00;92.60;;;;;;5044258;28;20140;-66
2021/01/04 11:29:34;;;;;;;6.80;2.00;;;3.00;92.50;;;;;;5046050;28;20025;-66
2021/01/04 11:32:00;;;;;;;3.10;1.73;;;3.00;92.60;;;;;;5062264;28;20067;-66
2021/01/04 11:34:25;;;;;;;2.88;2.00;;;3.00;92.80;;;;;;5062600;28;20467;-66
2021/01/04 11:36:51;;;;;;;2.70;1.88;;;3.00;92.80;;;;;;5045170;28;20039;-66
2021/01/04 11:39:19;;;;;;;3.90;2.15;;;3.00;92.60;;;;;;5063728;28;20542;-66
2021/01/04 11:41:46;;;;;;;3.08;1.98;;;3.00;92.70;;;;;;5062690;28;20379;-66
2021/01/04 11:44:12;;;;;;;2.67;1.70;;;3.00;92.70;;;;;;5063209;28;20024;-66
2021/01/04 11:46:37;;;;;;;4.43;1.90;;;3.00;92.90;;;;;;5064956;28;20709;-67
2021/01/04 11:49:04;;;;;;;3.53;2.03;;;3.00;92.90;;;;;;5068858;28;20032;-66
2021/01/04 11:51:30;;;;;;;5.20;2.22;;;2.90;92.50;;;;;;5050453;28;20067;-67
2021/01/04 11:53:55;;;;;;;4.63;1.92;;;3.00;93.00;;;;;;5049699;28;20031;-66
2021/01/04 11:56:23;;;;;;;5.10;1.90;;;3.00;93.00;;;;;;5068805;28;21443;-66
2021/01/04 11:58:48;;;;;;;4.28;2.15;;;3.00;93.00;;;;;;5068607;28;20024;-66
2021/01/04 12:01:17;;;;;;;6.85;2.40;;;3.00;93.00;;;;;;5049067;28;20734;-66
2021/01/04 12:03:44;;;;;;;3.78;1.90;;;3.00;93.00;;;;;;5068845;28;20040;-66
2021/01/04 12:06:10;;;;;;;3.63;2.28;;;3.00;93.20;;;;;;5042791;28;20044;-66
2021/01/04 12:08:38;;;;;;;4.68;2.05;;;3.00;93.00;;;;;;5070827;28;20050;-66
2021/01/04 12:11:04;;;;;;;6.65;2.10;;;3.00;93.20;;;;;;5068180;28;20123;-66
2021/01/04 12:13:30;;;;;;;4.82;2.20;;;3.00;93.10;;;;;;5071419;28;20325;-66
2021/01/04 12:15:56;;;;;;;5.05;2.45;;;3.00;93.30;;;;;;5068310;28;20660;-66
2021/01/04 12:18:21;;;;;;;3.33;1.90;;;3.00;93.20;;;;;;5066317;28;20062;-66
2021/01/04 12:20:48;;;;;;;5.35;2.10;;;3.00;93.30;;;;;;5046891;28;20034;-66
2021/01/04 12:23:14;;;;;;;3.80;1.92;;;3.00;93.40;;;;;;5065743;28;20788;-66
2021/01/04 12:25:39;;;;;;;4.82;2.17;;;2.90;93.40;;;;;;5067214;28;20552;-65
2021/01/04 12:28:05;;;;;;;3.97;1.98;;;2.90;93.30;;;;;;5067474;28;20633;-66
2021/01/04 12:30:33;;;;;;;3.42;1.92;;;2.90;93.50;;;;;;5053855;28;20663;-66
2021/01/04 12:33:00;;;;;;;3.20;2.20;;;3.00;93.40;;;;;;5068936;28;20028;-66
2021/01/04 12:35:26;;;;;;;5.28;2.38;;;3.00;93.60;;;;;;5067328;28;20034;-66
2021/01/04 12:37:52;;;;;;;3.75;2.05;;;3.00;93.50;;;;;;5066290;28;20645;-66
2021/01/04 12:40:20;;;;;;;3.22;2.30;;;3.10;93.40;;;;;;5067101;28;20024;-67
2021/01/04 12:42:46;;;;;;;2.78;2.10;;;3.10;93.20;;;;;;5048810;28;20119;-66
2021/01/04 12:45:15;;;;;;;5.18;2.03;;;3.10;93.50;;;;;;5067227;28;20028;-66
2021/01/04 12:47:41;;;;;;;2.80;2.10;;;3.20;93.50;;;;;;5067352;28;20028;-66
2021/01/04 12:50:07;;;;;;;3.75;2.00;;;3.30;93.30;;;;;;5067263;28;20109;-66
2021/01/04 12:52:33;;;;;;;3.00;2.10;;;3.30;93.00;;;;;;5065507;28;20207;-65
2021/01/04 12:54:58;;;;;;;3.75;1.83;;;3.30;93.20;;;;;;5048536;28;20520;-66
2021/01/04 12:57:24;;;;;;;3.53;2.05;;;3.20;92.80;;;;;;5064509;28;20024;-66
2021/01/04 12:59:50;;;;;;;1.67;1.50;;;3.20;93.10;;;;;;5066442;28;20032;-66
2021/01/04 13:02:18;;;;;;;3.78;1.77;;;3.20;92.90;;;;;;5052565;28;20046;-66
2021/01/04 13:04:44;;;;;;;2.17;1.55;;;3.20;93.00;;;;;;5066543;28;20399;-67
2021/01/04 13:07:11;;;;;;;1.85;1.38;;;3.20;93.00;;;;;;5064314;28;20110;-66
2021/01/04 13:09:37;;;;;;;3.20;1.50;;;3.10;92.60;;;;;;5051584;28;20073;-66
2021/01/04 13:12:05;;;;;;;2.45;1.67;;;3.10;93.20;;;;;;5065398;28;20052;-67
2021/01/04 13:14:30;;;;;;;2.20;1.45;;;3.10;93.30;;;;;;5065070;28;20024;-67
2021/01/04 13:16:56;;;;;;;3.13;1.30;;;3.00;93.30;;;;;;5065634;28;20896;-66
2021/01/04 13:19:27;;;;;;;2.03;1.50;;;3.00;93.50;;;;;;5065189;28;20061;-67
2021/01/04 13:22:00;;;;;;;4.47;1.85;;;3.10;93.60;;;;;;5064655;28;20082;-66
2021/01/04 13:24:27;;;;;;;2.22;1.33;;;3.00;93.60;;;;;;5066545;28;20131;-66
2021/01/04 13:26:54;;;;;;;2.42;1.40;;;3.00;93.70;;;;;;5067522;28;20163;-66
2021/01/04 13:29:26;;;;;;;3.55;1.40;;;3.00;93.60;;;;;;5066179;28;20511;-67
2021/01/04 13:32:01;;;;;;;2.65;1.52;;;3.00;93.60;;;;;;5061795;28;20028;-67
2021/01/04 13:34:29;;;;;;;2.58;1.42;;;3.00;93.80;;;;;;5065028;28;20038;-67
2021/01/04 13:36:54;;;;;;;2.22;1.15;;;3.00;93.90;;;;;;5066066;28;20076;-67
2021/01/04 13:39:20;;;;;;;2.28;1.40;;;3.00;93.90;;;;;;5064919;28;20082;-66
2021/01/04 13:41:50;;;;;;;3.78;1.52;;;2.90;93.90;;;;;;5065475;28;20101;-66